Time;durP1;ratioP1;P1;durP2;ratioP2;P2;SDS_P1;SDS_P2;PMS_P1;PMS_P2;Temp;Humidity;BMP_temperature;BMP_pressure;BME280_temperature;BME280_humidity;BME280_pressure;Samples;Min_cycle;Max_cycle;Signal;HPM_P1;HPM_P2
2022/12/12 00:02:00;;;;;;;;;48.50;38.00;;;;;;;;5061323;28;45791;-83
2022/12/12 00:04:25;;;;;;;;;45.75;38.75;;;;;;;;5061544;28;45770;-83
2022/12/12 00:06:50;;;;;;;;;44.00;37.50;;;;;;;;5054773;28;45497;-82
2022/12/12 00:09:16;;;;;;;;;54.75;41.00;;;;;;;;5038730;28;46870;-83
2022/12/12 00:11:41;;;;;;;;;64.25;46.00;;;;;;;;5036284;28;45439;-82
2022/12/12 00:14:07;;;;;;;;;52.50;42.00;;;;;;;;5040881;28;45504;-83
2022/12/12 00:16:33;;;;;;;;;59.00;44.75;;;;;;;;5040498;28;45538;-83
2022/12/12 00:18:58;;;;;;;;;55.75;42.25;;;;;;;;5058580;28;46149;-82
2022/12/12 00:21:25;;;;;;;;;58.25;41.75;;;;;;;;5051256;28;45536;-84
2022/12/12 00:23:51;;;;;;;;;63.00;44.25;;;;;;;;5037426;28;45404;-81
2022/12/12 00:26:19;;;;;;;;;63.25;49.00;;;;;;;;5058019;28;45767;-81
2022/12/12 00:28:44;;;;;;;;;39.75;21.25;;;;;;;;5070519;28;46183;-81
2022/12/12 00:31:10;;;;;;;;;59.00;38.50;;;;;;;;5060506;28;45391;-81
2022/12/12 00:33:35;;;;;;;;;55.00;40.50;;;;;;;;5040332;28;45905;-79
2022/12/12 00:36:02;;;;;;;;;53.50;40.50;;;;;;;;5036331;28;45540;-82
2022/12/12 00:38:32;;;;;;;;;34.00;25.00;;;;;;;;5037892;28;45587;-81
2022/12/12 00:40:59;;;;;;;;;52.50;37.75;;;;;;;;5042968;28;45539;-80
2022/12/12 00:43:27;;;;;;;;;43.25;34.75;;;;;;;;5063387;28;46062;-79
2022/12/12 00:45:52;;;;;;;;;43.75;38.25;;;;;;;;5040163;28;45564;-80
2022/12/12 00:48:18;;;;;;;;;45.50;38.50;;;;;;;;5041445;28;46994;-83
2022/12/12 00:50:44;;;;;;;;;52.00;34.50;;;;;;;;5037868;28;45328;-82
2022/12/12 00:53:09;;;;;;;;;44.50;35.00;;;;;;;;5056966;28;45359;-82
2022/12/12 00:55:35;;;;;;;;;38.25;32.00;;;;;;;;5050972;28;45510;-81
2022/12/12 00:58:00;;;;;;;;;54.75;37.75;;;;;;;;5052344;28;45572;-81
2022/12/12 01:00:26;;;;;;;;;55.00;36.25;;;;;;;;5042544;28;45490;-82
2022/12/12 01:02:54;;;;;;;;;44.50;33.50;;;;;;;;5036884;28;45531;-83
2022/12/12 01:05:19;;;;;;;;;47.50;31.50;;;;;;;;5037272;28;45648;-80
2022/12/12 01:07:45;;;;;;;;;44.00;31.50;;;;;;;;5055435;28;45799;-80
2022/12/12 01:10:10;;;;;;;;;48.00;36.00;;;;;;;;5041982;28;45596;-83
2022/12/12 01:12:35;;;;;;;;;38.25;30.50;;;;;;;;5040119;28;45842;-83
2022/12/12 01:15:01;;;;;;;;;45.25;34.50;;;;;;;;5044345;28;45678;-83
2022/12/12 01:17:27;;;;;;;;;49.00;35.50;;;;;;;;5062404;28;45617;-81
2022/12/12 01:19:52;;;;;;;;;30.75;24.25;;;;;;;;5051137;28;45426;-82
2022/12/12 01:22:17;;;;;;;;;45.50;35.25;;;;;;;;5046211;28;46067;-82
2022/12/12 01:24:43;;;;;;;;;36.25;29.25;;;;;;;;5063997;28;45565;-84
2022/12/12 01:27:10;;;;;;;;;48.50;36.50;;;;;;;;5064590;28;45457;-83
2022/12/12 01:29:35;;;;;;;;;49.75;35.75;;;;;;;;5057963;28;45688;-83
2022/12/12 01:32:01;;;;;;;;;39.00;27.50;;;;;;;;5044501;28;45720;-81
2022/12/12 01:34:26;;;;;;;;;39.25;29.25;;;;;;;;5059819;28;45423;-81
2022/12/12 01:36:51;;;;;;;;;51.25;35.00;;;;;;;;5049837;28;47279;-84
2022/12/12 01:39:17;;;;;;;;;41.25;32.00;;;;;;;;5057551;28;45482;-85
2022/12/12 01:41:43;;;;;;;;;39.00;31.75;;;;;;;;5062183;28;45414;-84
2022/12/12 01:44:27;;;;;;;;;35.00;27.75;;;;;;;;5043031;28;45989;-82
2022/12/12 01:46:53;;;;;;;;;45.50;35.75;;;;;;;;5057851;28;46525;-82
2022/12/12 01:49:26;;;;;;;;;36.50;29.50;;;;;;;;5062579;28;45478;-83
2022/12/12 01:51:55;;;;;;;;;36.50;25.00;;;;;;;;5051188;28;45716;-81
2022/12/12 01:54:23;;;;;;;;;40.75;31.50;;;;;;;;5052183;28;46193;-82
2022/12/12 01:56:50;;;;;;;;;34.50;30.50;;;;;;;;5043707;28;46206;-83
2022/12/12 01:59:18;;;;;;;;;46.50;37.00;;;;;;;;5042350;28;45411;-82
2022/12/12 02:01:43;;;;;;;;;33.00;27.50;;;;;;;;5042853;28;45423;-82
2022/12/12 02:04:10;;;;;;;;;38.50;33.75;;;;;;;;5042408;28;46185;-82
2022/12/12 02:06:35;;;;;;;;;40.00;28.50;;;;;;;;5057203;28;45371;-83
2022/12/12 02:09:04;;;;;;;;;43.50;32.00;;;;;;;;5031210;28;44827;-82
2022/12/12 02:11:30;;;;;;;;;35.50;27.50;;;;;;;;5052123;28;45366;-81
2022/12/12 02:13:56;;;;;;;;;37.00;30.00;;;;;;;;5062868;28;46623;-82
2022/12/12 02:16:41;;;;;;;;;36.50;29.75;;;;;;;;5057053;28;45730;-81
2022/12/12 02:19:16;;;;;;;;;29.00;26.00;;;;;;;;5063148;28;45451;-83
2022/12/12 02:22:07;;;;;;;;;43.00;31.00;;;;;;;;5038840;28;45544;-81
2022/12/12 02:24:59;;;;;;;;;34.75;30.25;;;;;;;;5034761;28;46005;-82
2022/12/12 02:27:25;;;;;;;;;30.75;26.00;;;;;;;;5065955;28;45768;-80
2022/12/12 02:29:50;;;;;;;;;35.00;29.25;;;;;;;;5072961;28;45676;-83
2022/12/12 02:32:19;;;;;;;;;39.25;30.00;;;;;;;;5048005;28;44907;-81
2022/12/12 02:34:54;;;;;;;;;36.50;27.75;;;;;;;;5048246;28;45725;-82
2022/12/12 02:37:26;;;;;;;;;40.00;35.25;;;;;;;;5070664;28;46043;-82
2022/12/12 02:40:03;;;;;;;;;38.25;35.75;;;;;;;;5063658;28;45547;-82
2022/12/12 02:42:35;;;;;;;;;41.00;31.75;;;;;;;;5047178;28;45494;-82
2022/12/12 02:45:00;;;;;;;;;32.25;28.75;;;;;;;;5064120;28;45336;-82
2022/12/12 02:47:29;;;;;;;;;36.75;30.75;;;;;;;;5064950;28;46242;-82
2022/12/12 02:49:59;;;;;;;;;41.25;30.50;;;;;;;;5056404;28;45536;-82
2022/12/12 02:52:24;;;;;;;;;35.25;26.75;;;;;;;;5079194;28;45365;-80
2022/12/12 02:54:50;;;;;;;;;34.25;24.50;;;;;;;;5046519;28;45873;-83
2022/12/12 02:57:16;;;;;;;;;36.75;28.00;;;;;;;;5036794;28;46938;-82
2022/12/12 02:59:44;;;;;;;;;46.25;29.00;;;;;;;;5046050;28;45797;-82
2022/12/12 03:02:27;;;;;;;;;41.75;31.75;;;;;;;;5054772;28;45603;-82
2022/12/12 03:07:46;;;;;;;;;37.75;29.25;;;;;;;;5060619;28;45446;-82
2022/12/12 03:10:33;;;;;;;;;39.50;32.50;;;;;;;;5059747;28;45437;-82
2022/12/12 03:13:08;;;;;;;;;29.00;24.50;;;;;;;;5036016;28;45426;-82
2022/12/12 03:15:52;;;;;;;;;33.25;29.75;;;;;;;;5050847;28;45647;-83
2022/12/12 03:18:21;;;;;;;;;33.50;26.75;;;;;;;;5051291;28;47058;-82
2022/12/12 03:20:51;;;;;;;;;30.75;23.00;;;;;;;;5040631;28;45373;-80
2022/12/12 03:23:20;;;;;;;;;34.75;30.00;;;;;;;;5066294;28;45474;-82
2022/12/12 03:25:55;;;;;;;;;33.00;25.50;;;;;;;;5046843;28;45896;-81
2022/12/12 03:28:37;;;;;;;;;29.75;27.50;;;;;;;;5048185;28;47113;-82
2022/12/12 03:31:05;;;;;;;;;38.00;28.25;;;;;;;;5062075;28;45434;-82
2022/12/12 03:33:45;;;;;;;;;36.50;27.00;;;;;;;;5062405;28;44812;-83
2022/12/12 03:36:26;;;;;;;;;37.25;28.75;;;;;;;;5051805;28;46407;-82
2022/12/12 03:38:57;;;;;;;;;36.25;29.25;;;;;;;;5066072;28;45241;-82
2022/12/12 03:41:27;;;;;;;;;42.25;33.50;;;;;;;;5047481;28;45462;-82
2022/12/12 03:43:56;;;;;;;;;34.75;22.75;;;;;;;;5045081;28;44894;-81
2022/12/12 03:46:51;;;;;;;;;33.25;24.50;;;;;;;;5050984;28;45711;-82
2022/12/12 03:49:27;;;;;;;;;42.00;32.00;;;;;;;;5021534;28;45301;-82
2022/12/12 03:52:13;;;;;;;;;7.50;5.00;;;;;;;;5038369;28;45149;-80
2022/12/12 03:54:57;;;;;;;;;27.50;21.25;;;;;;;;5030775;28;44832;-80
2022/12/12 03:57:25;;;;;;;;;26.50;23.00;;;;;;;;5035564;28;45489;-81
2022/12/12 03:59:53;;;;;;;;;29.50;24.75;;;;;;;;5037649;28;45261;-81
2022/12/12 04:02:23;;;;;;;;;35.75;28.50;;;;;;;;5036773;28;45068;-82
2022/12/12 04:05:02;;;;;;;;;33.00;29.00;;;;;;;;5037656;28;45233;-81
2022/12/12 04:07:32;;;;;;;;;28.25;23.25;;;;;;;;5036336;28;45491;-81
2022/12/12 04:30:40;;;;;;;;;39.50;29.50;;;;;1.62;100.00;100548.53;5104131;27;45912;-69
2022/12/12 04:33:11;;;;;;;;;29.00;24.25;;;;;1.76;100.00;100549.81;5081314;27;45911;-71
2022/12/12 04:35:42;;;;;;;;;31.50;23.50;;;;;1.78;100.00;100555.91;5077075;27;45551;-71
2022/12/12 04:38:12;;;;;;;;;37.00;26.75;;;;;1.71;100.00;100547.59;5085503;27;46742;-71
2022/12/12 04:40:42;;;;;;;;;28.75;23.75;;;;;1.52;100.00;100535.09;5095079;27;48181;-67
2022/12/12 04:43:15;;;;;;;;;34.25;24.50;;;;;1.59;100.00;100551.53;5073609;27;45367;-68
2022/12/12 04:46:00;;;;;;;;;31.50;26.25;;;;;1.56;100.00;100547.28;5087393;27;45265;-69
2022/12/12 04:48:50;;;;;;;;;32.00;25.50;;;;;1.49;100.00;100548.91;5078685;27;45541;-71
2022/12/12 04:51:23;;;;;;;;;31.75;22.25;;;;;1.47;100.00;100548.22;5084582;27;45449;-70
2022/12/12 04:53:59;;;;;;;;;25.50;22.00;;;;;1.33;100.00;100532.53;5088706;27;45822;-69
2022/12/12 04:56:29;;;;;;;;;32.00;28.00;;;;;1.42;100.00;100537.00;5093032;27;46312;-70
2022/12/12 04:58:56;;;;;;;;;31.75;25.50;;;;;1.41;100.00;100548.84;5076197;27;45405;-70
2022/12/12 05:01:31;;;;;;;;;26.75;24.75;;;;;1.42;100.00;100558.63;5078504;27;45996;-70
2022/12/12 05:04:02;;;;;;;;;27.50;25.25;;;;;1.45;100.00;100550.22;5076647;27;45670;-69
2022/12/12 05:06:34;;;;;;;;;32.75;28.50;;;;;1.46;100.00;100546.50;5076156;27;45782;-70
2022/12/12 05:09:01;;;;;;;;;30.50;26.75;;;;;1.40;100.00;100536.31;5074628;27;45432;-70
2022/12/12 05:11:27;;;;;;;;;25.75;21.00;;;;;1.35;100.00;100527.84;5079939;27;45821;-70
2022/12/12 05:13:52;;;;;;;;;31.25;25.50;;;;;1.40;100.00;100542.56;5081113;27;45627;-71
2022/12/12 05:16:18;;;;;;;;;30.00;23.75;;;;;1.44;100.00;100535.03;5091464;27;45837;-70
2022/12/12 05:18:44;;;;;;;;;32.50;27.25;;;;;1.44;100.00;100536.84;5079422;27;45554;-67
2022/12/12 05:21:09;;;;;;;;;32.25;25.25;;;;;1.46;100.00;100541.09;5083650;27;45572;-66
2022/12/12 05:23:35;;;;;;;;;28.75;23.75;;;;;1.50;100.00;100547.06;5079250;27;45484;-69
2022/12/12 05:26:06;;;;;;;;;27.50;24.25;;;;;1.35;100.00;100526.00;5076007;27;45914;-69
2022/12/12 05:28:31;;;;;;;;;28.75;24.50;;;;;1.52;100.00;100553.16;5079805;27;45359;-69
2022/12/12 05:30:57;;;;;;;;;34.25;22.75;;;;;1.61;100.00;100544.13;5070359;27;45343;-71
2022/12/12 05:33:22;;;;;;;;;35.75;28.75;;;;;1.72;100.00;100549.28;5062509;28;45454;-72
2022/12/12 05:35:47;;;;;;;;;33.25;27.25;;;;;1.74;100.00;100541.88;5064914;28;45389;-71
2022/12/12 05:38:13;;;;;;;;;32.25;30.00;;;;;1.82;100.00;100543.78;5070394;28;45833;-71
2022/12/12 05:40:38;;;;;;;;;34.00;26.50;;;;;1.90;100.00;100538.44;5066502;28;46167;-70
2022/12/12 05:43:03;;;;;;;;;30.50;29.25;;;;;2.00;100.00;100534.78;5066021;27;45470;-71
2022/12/12 05:45:29;;;;;;;;;34.25;25.75;;;;;2.08;100.00;100540.25;5063056;27;45369;-70
2022/12/12 05:47:54;;;;;;;;;28.75;24.50;;;;;2.18;100.00;100529.34;5069709;27;46337;-71
2022/12/12 05:50:20;;;;;;;;;40.50;29.50;;;;;2.23;100.00;100533.25;5062007;27;45538;-73
2022/12/12 05:52:45;;;;;;;;;35.25;28.50;;;;;2.26;100.00;100527.53;5062828;27;45317;-74
2022/12/12 05:55:10;;;;;;;;;45.00;34.25;;;;;2.31;100.00;100537.88;5059879;27;46032;-72
2022/12/12 05:57:36;;;;;;;;;32.25;26.75;;;;;2.25;100.00;100520.41;5061336;27;45421;-67
2022/12/12 06:00:03;;;;;;;;;41.25;35.25;;;;;2.43;100.00;100535.75;5062128;28;45737;-67
2022/12/12 06:02:29;;;;;;;;;34.25;30.75;;;;;2.46;100.00;100530.00;5059777;27;45821;-70
2022/12/12 06:04:54;;;;;;;;;46.00;33.50;;;;;2.40;100.00;100533.34;5056612;28;45353;-69
2022/12/12 06:07:19;;;;;;;;;44.25;35.75;;;;;2.41;100.00;100535.03;5060699;28;45497;-71
2022/12/12 06:09:45;;;;;;;;;36.50;33.00;;;;;2.43;100.00;100544.69;5066063;27;47110;-68
2022/12/12 06:12:10;;;;;;;;;34.75;30.25;;;;;2.46;100.00;100548.94;5056194;27;45939;-70
2022/12/12 06:14:36;;;;;;;;;40.75;35.75;;;;;2.46;100.00;100538.97;5066286;28;45391;-69
2022/12/12 06:17:01;;;;;;;;;38.25;31.25;;;;;2.53;100.00;100541.03;5067843;28;45344;-67
2022/12/12 06:19:26;;;;;;;;;49.50;37.25;;;;;2.46;100.00;100548.94;5064048;28;45747;-69
2022/12/12 06:21:52;;;;;;;;;53.75;39.75;;;;;2.49;100.00;100551.34;5066701;28;45435;-67
2022/12/12 06:24:17;;;;;;;;;38.75;30.75;;;;;2.50;100.00;100544.91;5053178;28;45869;-70
2022/12/12 06:26:42;;;;;;;;;30.25;21.75;;;;;2.39;100.00;100529.78;5067822;28;45609;-70
2022/12/12 06:29:08;;;;;;;;;39.00;32.75;;;;;2.44;100.00;100545.53;5079554;27;48321;-66
2022/12/12 06:31:33;;;;;;;;;41.75;30.75;;;;;2.48;100.00;100549.63;5062110;28;45526;-68
2022/12/12 06:33:58;;;;;;;;;40.25;32.75;;;;;2.53;100.00;100544.59;5062452;27;46036;-67
2022/12/12 06:36:24;;;;;;;;;32.25;30.50;;;;;2.49;100.00;100540.50;5068657;28;45406;-69
2022/12/12 06:38:55;;;;;;;;;41.50;34.75;;;;;2.58;100.00;100544.09;5058839;27;45469;-72
2022/12/12 06:41:22;;;;;;;;;41.00;31.50;;;;;2.69;100.00;100554.63;5064498;27;45477;-70
2022/12/12 06:43:48;;;;;;;;;39.50;32.75;;;;;2.73;100.00;100547.06;5061106;27;45424;-71
2022/12/12 06:46:22;;;;;;;;;40.50;32.50;;;;;2.61;100.00;100547.31;5063693;27;45757;-73
2022/12/12 06:48:48;;;;;;;;;39.25;31.00;;;;;2.51;100.00;100543.06;5065876;28;48217;-68
2022/12/12 06:51:16;;;;;;;;;33.00;22.75;;;;;2.40;100.00;100552.31;5063045;28;45365;-66
2022/12/12 06:53:41;;;;;;;;;35.75;26.25;;;;;2.33;100.00;100554.78;5059675;27;45481;-67
2022/12/12 06:56:09;;;;;;;;;38.50;35.00;;;;;2.35;100.00;100554.63;5064653;28;45733;-67
2022/12/12 06:58:35;;;;;;;;;41.25;29.50;;;;;2.34;100.00;100555.66;5060445;27;46683;-67
2022/12/12 07:01:01;;;;;;;;;45.00;36.25;;;;;2.27;100.00;100553.56;5063663;27;45439;-71
2022/12/12 07:03:27;;;;;;;;;39.75;32.25;;;;;2.11;100.00;100556.16;5059003;27;46026;-67
2022/12/12 07:05:52;;;;;;;;;47.50;36.75;;;;;1.95;100.00;100556.91;5060727;27;46926;-68
2022/12/12 07:08:22;;;;;;;;;44.00;32.50;;;;;1.88;100.00;100553.97;5054628;28;46656;-67
2022/12/12 07:10:50;;;;;;;;;43.50;36.75;;;;;1.85;100.00;100548.03;5075379;27;45389;-70
2022/12/12 07:13:16;;;;;;;;;42.75;35.25;;;;;1.92;100.00;100543.69;5080617;27;45415;-71
2022/12/12 07:15:49;;;;;;;;;52.50;39.25;;;;;1.83;100.00;100547.34;5060578;27;46100;-75
2022/12/12 07:18:16;;;;;;;;;45.50;36.00;;;;;1.83;100.00;100544.66;5056395;27;45522;-71
2022/12/12 07:20:45;;;;;;;;;34.50;30.25;;;;;1.79;100.00;100535.97;5057752;27;45811;-73
2022/12/12 07:23:11;;;;;;;;;41.25;32.50;;;;;1.78;100.00;100545.09;5057785;28;45315;-72
2022/12/12 07:25:41;;;;;;;;;39.25;31.00;;;;;1.79;100.00;100557.63;5055237;28;45810;-71
2022/12/12 07:28:09;;;;;;;;;36.25;31.00;;;;;1.84;100.00;100549.91;5058744;27;45540;-72
2022/12/12 07:30:37;;;;;;;;;34.50;30.75;;;;;1.90;100.00;100562.78;5052636;27;45596;-72
2022/12/12 07:33:03;;;;;;;;;38.50;30.00;;;;;1.94;100.00;100566.00;5054220;28;45872;-73
2022/12/12 07:35:28;;;;;;;;;37.00;29.00;;;;;2.00;100.00;100572.66;5053465;28;45758;-72
2022/12/12 07:37:55;;;;;;;;;41.50;33.75;;;;;2.10;100.00;100581.53;5057609;28;45429;-74
2022/12/12 07:40:21;;;;;;;;;33.25;31.75;;;;;1.99;100.00;100576.34;5057624;27;45537;-72
2022/12/12 07:42:46;;;;;;;;;49.25;35.00;;;;;2.01;100.00;100577.91;5067685;27;45372;-71
2022/12/12 07:45:11;;;;;;;;;52.50;37.75;;;;;2.01;100.00;100583.31;5070396;27;45375;-71
2022/12/12 07:47:37;;;;;;;;;40.75;35.50;;;;;2.10;100.00;100579.66;5065328;27;45629;-71
2022/12/12 07:50:03;;;;;;;;;45.00;35.50;;;;;2.08;100.00;100583.53;5060257;27;45389;-74
2022/12/12 07:52:28;;;;;;;;;38.50;30.00;;;;;2.01;100.00;100571.66;5066716;27;45702;-71
2022/12/12 07:54:53;;;;;;;;;47.00;37.00;;;;;2.00;100.00;100580.78;5063726;27;45705;-72
2022/12/12 07:57:21;;;;;;;;;46.50;37.50;;;;;1.93;100.00;100583.25;5074731;27;46113;-72
2022/12/12 07:59:46;;;;;;;;;44.00;32.75;;;;;1.83;100.00;100588.75;5072535;27;45486;-72
2022/12/12 08:02:12;;;;;;;;;41.50;35.25;;;;;1.65;100.00;100588.75;5068455;27;45649;-70
2022/12/12 08:04:37;;;;;;;;;43.75;33.00;;;;;1.56;100.00;100590.53;5072728;27;45783;-70
2022/12/12 08:07:03;;;;;;;;;39.50;27.00;;;;;1.33;100.00;100563.13;5071047;27;46067;-69
2022/12/12 08:09:28;;;;;;;;;45.25;33.00;;;;;1.40;100.00;100595.78;5071363;27;45354;-70
2022/12/12 08:11:56;;;;;;;;;41.25;33.75;;;;;1.29;100.00;100588.75;5071263;27;45671;-69
2022/12/12 08:14:22;;;;;;;;;48.00;37.25;;;;;1.30;100.00;100600.38;5068152;27;45719;-70
2022/12/12 08:16:47;;;;;;;;;37.00;33.50;;;;;1.17;100.00;100598.06;5078058;27;47979;-69
2022/12/12 08:19:12;;;;;;;;;42.00;31.25;;;;;1.20;100.00;100616.66;5068976;27;45907;-69
2022/12/12 08:21:38;;;;;;;;;39.25;31.75;;;;;1.24;100.00;100612.66;5072960;27;46281;-68
2022/12/12 08:24:03;;;;;;;;;42.25;37.00;;;;;1.28;100.00;100602.41;5071285;27;45445;-70
2022/12/12 08:26:30;;;;;;;;;49.50;40.00;;;;;1.30;100.00;100603.94;5077018;27;45865;-72
2022/12/12 08:28:56;;;;;;;;;44.25;37.75;;;;;1.24;100.00;100585.63;5070340;27;46490;-74
2022/12/12 08:31:22;;;;;;;;;43.75;33.50;;;;;1.39;100.00;100604.88;5076014;27;45487;-72
2022/12/12 08:33:54;;;;;;;;;42.75;37.25;;;;;1.34;100.00;100590.97;5059430;27;45742;-71
2022/12/12 08:36:23;;;;;;;;;42.25;37.50;;;;;1.47;100.00;100613.09;5069355;27;45854;-71
2022/12/12 08:38:50;;;;;;;;;37.75;30.50;;;;;1.55;100.00;100609.59;5060762;28;45867;-71
2022/12/12 08:41:16;;;;;;;;;36.75;32.25;;;;;1.68;100.00;100610.06;5076446;27;45834;-69
2022/12/12 08:43:42;;;;;;;;;41.50;37.75;;;;;1.73;100.00;100617.72;5062967;27;45399;-69
2022/12/12 08:46:09;;;;;;;;;40.75;37.25;;;;;1.89;100.00;100614.31;5052068;28;46668;-68
2022/12/12 08:48:35;;;;;;;;;43.75;37.00;;;;;1.85;100.00;100599.41;5063787;28;45681;-68
2022/12/12 08:51:00;;;;;;;;;50.00;33.00;;;;;2.05;100.00;100622.59;5065810;27;45700;-69
2022/12/12 08:53:26;;;;;;;;;29.50;27.25;;;;;2.10;100.00;100619.41;5062967;28;45530;-70
2022/12/12 08:55:53;;;;;;;;;40.75;32.75;;;;;2.18;100.00;100635.69;5069843;28;46572;-70
2022/12/12 08:58:18;;;;;;;;;42.25;37.00;;;;;2.34;100.00;100643.09;5079205;27;45529;-72
2022/12/12 09:00:43;;;;;;;;;48.50;37.50;;;;;2.44;100.00;100640.25;5076350;27;45345;-71
2022/12/12 09:03:09;;;;;;;;;42.25;34.25;;;;;2.63;100.00;100637.38;5060926;27;45392;-71
2022/12/12 09:05:34;;;;;;;;;45.75;35.75;;;;;2.86;100.00;100630.53;5072470;27;45822;-71
2022/12/12 09:08:00;;;;;;;;;47.00;37.75;;;;;2.77;100.00;100637.75;5074845;27;45419;-71
2022/12/12 09:10:26;;;;;;;;;56.75;40.25;;;;;2.69;100.00;100635.88;5070259;28;45413;-71
2022/12/12 09:12:52;;;;;;;;;40.00;33.75;;;;;2.66;100.00;100638.91;5067427;28;45821;-72
2022/12/12 09:15:21;;;;;;;;;45.75;35.25;;;;;2.65;100.00;100616.41;5085592;27;45654;-69
2022/12/12 09:17:46;;;;;;;;;52.00;38.00;;;;;2.93;100.00;100637.84;5074941;27;45531;-69
2022/12/12 09:20:16;;;;;;;;;41.50;36.25;;;;;2.97;100.00;100614.84;5071659;27;45688;-68
2022/12/12 09:22:42;;;;;;;;;55.50;41.50;;;;;3.11;100.00;100635.06;5074829;28;45417;-73
2022/12/12 09:25:09;;;;;;;;;45.50;35.50;;;;;3.04;100.00;100635.88;5075798;27;45675;-73
2022/12/12 09:27:35;;;;;;;;;49.50;36.75;;;;;3.08;100.00;100648.09;5071412;27;45358;-74
2022/12/12 09:30:00;;;;;;;;;51.75;41.75;;;;;3.14;100.00;100634.75;5075203;27;45707;-72
2022/12/12 09:32:26;;;;;;;;;53.00;41.50;;;;;3.28;100.00;100625.16;5069845;27;45376;-72
2022/12/12 09:34:51;;;;;;;;;43.75;39.00;;;;;3.35;100.00;100620.78;5062175;27;45961;-69
2022/12/12 09:37:17;;;;;;;;;44.25;40.00;;;;;3.36;100.00;100619.72;5068637;28;45820;-73
2022/12/12 09:39:42;;;;;;;;;52.75;37.00;;;;;3.26;100.00;100607.34;5063467;27;46030;-69
2022/12/12 09:42:22;;;;;;;;;48.00;38.75;;;;;3.28;100.00;100622.44;5063265;27;45882;-70
2022/12/12 09:44:49;;;;;;;;;56.75;41.25;;;;;3.59;100.00;100618.28;5063388;28;45931;-70
2022/12/12 09:47:43;;;;;;;;;46.75;36.25;;;;;3.49;100.00;100602.16;5060385;27;45458;-74
2022/12/12 09:50:27;;;;;;;;;43.25;37.25;;;;;3.62;100.00;100626.94;5071715;27;45458;-74
2022/12/12 09:52:56;;;;;;;;;26.50;25.75;;;;;3.75;100.00;100631.03;5060955;28;46415;-76
2022/12/12 09:55:43;;;;;;;;;47.75;36.00;;;;;3.92;100.00;100632.72;5076298;27;47368;-74
2022/12/12 09:58:27;;;;;;;;;44.25;34.75;;;;;4.46;100.00;100624.09;5059764;28;45430;-70
2022/12/12 10:01:12;;;;;;;;;50.00;36.50;;;;;4.91;100.00;100621.75;5070771;28;45566;-69
2022/12/12 10:03:54;;;;;;;;;48.75;35.00;;;;;4.84;100.00;100610.75;5070711;28;46962;-76
2022/12/12 10:06:22;;;;;;;;;56.75;38.75;;;;;5.16;100.00;100627.94;5066696;28;46275;-76
2022/12/12 10:08:54;;;;;;;;;47.25;37.75;;;;;4.97;100.00;100612.91;5081206;27;45834;-73
2022/12/12 10:14:16;;;;;;;;;45.75;37.00;;;;;5.01;100.00;100613.41;5056282;28;45949;-74
2022/12/12 10:16:43;;;;;;;;;44.00;34.75;;;;;5.10;100.00;100606.91;5059976;27;45993;-74
2022/12/12 10:19:27;;;;;;;;;44.00;35.75;;;;;4.98;100.00;100601.00;5060732;27;45939;-75
2022/12/12 10:22:01;;;;;;;;;42.75;34.50;;;;;5.30;100.00;100597.28;5057528;28;45613;-75
2022/12/12 10:24:35;;;;;;;;;42.00;34.25;;;;;5.71;100.00;100595.34;5075710;27;45728;-74
2022/12/12 10:27:12;;;;;;;;;43.50;34.75;;;;;5.70;100.00;100583.59;5060252;27;45526;-75
2022/12/12 10:29:44;;;;;;;;;51.50;36.75;;;;;5.89;100.00;100578.72;5058763;28;45461;-75
2022/12/12 10:32:31;;;;;;;;;39.50;32.00;;;;;5.85;100.00;100583.66;5062539;28;45471;-74
2022/12/12 10:35:08;;;;;;;;;41.00;30.75;;;;;5.66;100.00;100588.56;5069994;28;45932;-75
2022/12/12 10:37:54;;;;;;;;;50.25;38.00;;;;;5.48;100.00;100597.03;5064305;27;46477;-73
2022/12/12 10:40:31;;;;;;;;;39.50;36.50;;;;;5.18;100.00;100595.13;5060471;27;45915;-74
2022/12/12 10:43:04;;;;;;;;;45.50;36.75;;;;;4.88;100.00;100592.19;5058592;28;45772;-75
2022/12/12 10:45:41;;;;;;;;;48.50;38.00;;;;;4.63;100.00;100605.88;5075786;27;46934;-74
2022/12/12 10:48:09;;;;;;;;;39.00;32.50;;;;;4.68;100.00;100602.63;5063890;27;45503;-74
2022/12/12 10:50:40;;;;;;;;;42.75;37.00;;;;;4.50;100.00;100600.13;5066765;28;45642;-74
2022/12/12 10:53:07;;;;;;;;;50.50;40.75;;;;;4.31;100.00;100602.22;5061431;27;45842;-74
2022/12/12 10:55:48;;;;;;;;;45.25;35.75;;;;;4.20;100.00;100594.41;5062831;28;45539;-74
2022/12/12 10:58:15;;;;;;;;;44.75;37.25;;;;;4.23;100.00;100591.34;5055009;28;45689;-75
2022/12/12 11:00:44;;;;;;;;;54.25;41.25;;;;;3.99;100.00;100589.50;5058866;28;45473;-75
2022/12/12 11:03:25;;;;;;;;;47.00;36.50;;;;;4.03;100.00;100582.72;5071369;27;45435;-69
2022/12/12 11:05:51;;;;;;;;;43.00;36.75;;;;;3.90;100.00;100575.06;5068923;27;46701;-76
2022/12/12 11:08:18;;;;;;;;;45.00;37.50;;;;;3.58;100.00;100576.75;5054630;27;47515;-76
2022/12/12 11:10:44;;;;;;;;;46.00;37.75;;;;;3.32;100.00;100560.59;5063723;27;45457;-74
2022/12/12 11:13:09;;;;;;;;;46.50;39.25;;;;;3.15;100.00;100565.16;5066037;27;45466;-76
2022/12/12 11:15:44;;;;;;;;;44.50;36.75;;;;;3.00;100.00;100556.81;5063176;27;45520;-75
2022/12/12 11:18:15;;;;;;;;;42.50;35.50;;;;;2.97;100.00;100552.56;5064188;28;45583;-69
2022/12/12 11:20:49;;;;;;;;;55.75;40.00;;;;;2.92;100.00;100537.78;5062008;27;45900;-70
2022/12/12 11:23:19;;;;;;;;;54.00;40.00;;;;;2.84;100.00;100538.63;5067171;27;45753;-70
2022/12/12 11:25:45;;;;;;;;;51.25;40.75;;;;;2.79;100.00;100527.44;5062489;27;45321;-70
2022/12/12 11:28:20;;;;;;;;;50.25;38.50;;;;;2.76;100.00;100525.06;5057875;27;46138;-68
2022/12/12 11:30:50;;;;;;;;;40.50;35.75;;;;;2.70;100.00;100512.19;5058348;27;45534;-69
2022/12/12 11:33:22;;;;;;;;;38.25;30.25;;;;;2.68;100.00;100508.78;5075373;27;45355;-69
2022/12/12 11:35:55;;;;;;;;;55.25;40.25;;;;;2.53;100.00;100495.00;5060952;27;45653;-69
2022/12/12 11:38:32;;;;;;;;;43.25;36.25;;;;;2.44;100.00;100481.44;5079418;27;45335;-68
2022/12/12 11:41:01;;;;;;;;;51.25;38.75;;;;;2.41;100.00;100492.59;5071207;27;45788;-69
2022/12/12 11:43:29;;;;;;;;;54.25;39.00;;;;;2.28;100.00;100493.03;5062866;28;45673;-67
2022/12/12 11:46:00;;;;;;;;;48.00;38.50;;;;;2.16;100.00;100504.31;5077035;27;45829;-68
2022/12/12 11:48:38;;;;;;;;;39.75;24.25;;;;;2.12;100.00;100487.53;5071468;27;46459;-68
2022/12/12 11:51:04;;;;;;;;;46.50;40.00;;;;;2.19;100.00;100491.28;5076914;27;45834;-68
2022/12/12 11:53:34;;;;;;;;;48.75;36.25;;;;;2.19;100.00;100493.16;5071786;27;45573;-67
2022/12/12 11:56:24;;;;;;;;;58.00;41.00;;;;;2.14;100.00;100501.75;5076902;27;45818;-69
2022/12/12 11:59:23;;;;;;;;;42.75;35.00;;;;;2.09;100.00;100477.88;5073357;28;46391;-66
2022/12/12 12:02:26;;;;;;;;;51.00;38.00;;;;;2.06;100.00;100490.88;5073331;28;45399;-68
2022/12/12 12:05:35;;;;;;;;;51.75;40.50;;;;;2.01;100.00;100494.06;5068785;27;45806;-67
2022/12/12 12:08:16;;;;;;;;;49.50;35.50;;;;;2.06;100.00;100499.00;5053981;28;45438;-66
2022/12/12 12:10:53;;;;;;;;;48.75;36.50;;;;;2.14;100.00;100490.06;5063110;28;46128;-67
2022/12/12 12:13:41;;;;;;;;;44.50;37.25;;;;;2.15;100.00;100491.78;5065854;27;45776;-67
2022/12/12 12:16:25;;;;;;;;;48.75;38.25;;;;;2.08;100.00;100486.16;5095566;27;45698;-67
2022/12/12 12:18:53;;;;;;;;;46.25;35.25;;;;;1.97;100.00;100499.97;5072302;28;45395;-67
2022/12/12 12:21:33;;;;;;;;;46.00;35.75;;;;;1.91;100.00;100483.34;5071746;27;45758;-67
2022/12/12 12:24:27;;;;;;;;;51.00;38.25;;;;;1.83;100.00;100474.34;5066162;28;45729;-66
2022/12/12 12:27:09;;;;;;;;;44.50;35.75;;;;;1.80;100.00;100485.44;5071970;28;45667;-73
2022/12/12 12:30:15;;;;;;;;;46.75;37.75;;;;;1.74;100.00;100478.84;5072653;27;45494;-67
2022/12/12 12:33:14;;;;;;;;;48.50;35.50;;;;;1.74;100.00;100473.44;5057341;28;48001;-75
2022/12/12 12:35:55;;;;;;;;;36.50;36.25;;;;;1.80;100.00;100469.22;5061373;28;45423;-73
2022/12/12 12:39:10;;;;;;;;;41.00;35.25;;;;;1.81;100.00;100468.22;5077562;28;45341;-73
2022/12/12 12:42:07;;;;;;;;;34.75;30.25;;;;;1.83;100.00;100458.97;5029071;27;45831;-74
2022/12/12 12:45:17;;;;;;;;;45.25;36.75;;;;;1.78;100.00;100463.97;5087056;27;45555;-74